Zwolle, Louisiana
Current Conditions -  °F | °C
As of 2:56 PM on Thursday 18 Dec 2014 (Local Time) from KAQV Reporting Station
Overcast Overcast  
Wind Chill: 13°   Ceiling: 700
Heat Index: 13°   Visibility: 10mi
Dew Point: 11°   Wind: 5mph
Humidity: 86%   Direction: 50°NE
Pressure: 30.08"   Gusts: NA
Location:  31.63°N, 93.64°W
Report Text: KAQV 182056Z AUTO 05004KT 10SM OVC007 13/11 A3008 RMK AO2 SLP185 T01280106 56015
Loading
Personal Weather Stations






























Interactive Weather Map New forecast layout! Learn more

10-Day Weather Forecast

Advertisements
Track Severe Weather on mobile